Time;durP1;ratioP1;P1;durP2;ratioP2;P2;SDS_P1;SDS_P2;PMS_P1;PMS_P2;Temp;Humidity;BMP_temperature;BMP_pressure;BME280_temperature;BME280_humidity;BME280_pressure;Samples;Min_cycle;Max_cycle;Signal;HPM_P1;HPM_P2
2022/11/14 00:02:07;;;;;;;51.85;34.25;;;;;;;;;;5061714;28;20435;-81
2022/11/14 00:04:34;;;;;;;53.35;33.53;;;;;;;;;;5063299;28;20429;-81
2022/11/14 00:07:01;;;;;;;54.42;35.35;;;;;;;;;;5065951;28;20430;-81
2022/11/14 00:09:28;;;;;;;53.28;34.45;;;;;;;;;;5066067;28;20436;-80
2022/11/14 00:11:55;;;;;;;53.50;34.38;;;;;;;;;;5076510;28;20432;-80
2022/11/14 00:14:24;;;;;;;55.35;34.17;;;;;;;;;;5085956;28;20429;-80
2022/11/14 00:16:50;;;;;;;55.25;34.47;;;;;;;;;;5079718;28;20413;-80
2022/11/14 00:19:17;;;;;;;51.83;34.08;;;;;;;;;;5065916;28;20485;-80
2022/11/14 00:21:44;;;;;;;50.85;33.58;;;;;;;;;;5066982;28;20411;-81
2022/11/14 00:24:10;;;;;;;56.00;34.78;;;;;;;;;;5067476;28;20417;-80
2022/11/14 00:26:37;;;;;;;55.50;36.47;;;;;;;;;;5066399;28;20419;-80
2022/11/14 00:29:04;;;;;;;54.40;34.90;;;;;;;;;;5063786;28;20461;-80
2022/11/14 00:31:31;;;;;;;55.85;35.75;;;;;;;;;;5065670;28;20412;-80
2022/11/14 00:33:58;;;;;;;52.77;34.33;;;;;;;;;;5061637;28;20408;-80
2022/11/14 00:36:24;;;;;;;56.95;34.33;;;;;;;;;;5061505;28;20413;-80
2022/11/14 00:38:52;;;;;;;53.03;34.75;;;;;;;;;;5064721;28;20411;-80
2022/11/14 00:41:18;;;;;;;53.55;35.08;;;;;;;;;;5068669;28;20938;-80
2022/11/14 00:43:45;;;;;;;53.15;33.75;;;;;;;;;;5067822;28;20425;-81
2022/11/14 00:46:13;;;;;;;53.67;33.70;;;;;;;;;;5070588;28;20414;-80
2022/11/14 00:48:39;;;;;;;54.90;34.43;;;;;;;;;;5065143;28;20436;-80
2022/11/14 00:51:06;;;;;;;56.05;34.63;;;;;;;;;;5068853;28;20412;-80
2022/11/14 00:53:32;;;;;;;58.67;35.20;;;;;;;;;;5064859;28;20425;-80
2022/11/14 00:56:08;;;;;;;58.50;35.90;;;;;;;;;;5065616;28;20546;-80
2022/11/14 00:58:35;;;;;;;57.35;35.35;;;;;;;;;;5064645;28;20425;-81
2022/11/14 01:01:02;;;;;;;55.88;34.38;;;;;;;;;;5063055;28;20432;-80
2022/11/14 01:03:32;;;;;;;55.95;35.10;;;;;;;;;;5067251;28;20425;-80
2022/11/14 01:06:03;;;;;;;52.50;35.10;;;;;;;;;;5062406;28;20511;-81
2022/11/14 01:08:29;;;;;;;58.53;37.28;;;;;;;;;;5065759;28;20915;-80
2022/11/14 01:10:57;;;;;;;56.72;34.83;;;;;;;;;;5064149;28;20434;-80
2022/11/14 01:13:24;;;;;;;56.43;35.07;;;;;;;;;;5065756;28;20493;-80
2022/11/14 01:15:51;;;;;;;54.22;35.92;;;;;;;;;;5064053;28;20901;-80
2022/11/14 01:18:18;;;;;;;58.03;35.97;;;;;;;;;;5066193;28;20409;-80
2022/11/14 01:20:47;;;;;;;52.95;33.80;;;;;;;;;;5059309;28;20423;-81
2022/11/14 01:23:14;;;;;;;57.08;34.72;;;;;;;;;;5072688;28;20925;-80
2022/11/14 01:25:41;;;;;;;55.30;34.95;;;;;;;;;;5065181;28;20925;-80
2022/11/14 01:28:10;;;;;;;53.47;34.60;;;;;;;;;;5061337;28;20433;-81
2022/11/14 01:30:37;;;;;;;56.67;34.22;;;;;;;;;;5062091;28;20413;-81
2022/11/14 01:33:04;;;;;;;50.70;32.88;;;;;;;;;;5062107;28;20837;-81
2022/11/14 01:35:31;;;;;;;53.53;33.05;;;;;;;;;;5065515;28;20891;-80
2022/11/14 01:37:59;;;;;;;53.72;34.97;;;;;;;;;;5063938;28;20409;-80
2022/11/14 01:40:25;;;;;;;51.60;32.10;;;;;;;;;;5066177;28;20424;-80
2022/11/14 01:43:10;;;;;;;48.30;31.70;;;;;;;;;;5068261;28;20427;-80
2022/11/14 01:45:47;;;;;;;56.90;34.73;;;;;;;;;;5065174;28;20445;-80
2022/11/14 01:48:24;;;;;;;52.42;32.88;;;;;;;;;;5051591;28;20421;-80
2022/11/14 01:50:54;;;;;;;51.25;33.35;;;;;;;;;;5066979;28;20411;-80
2022/11/14 01:53:22;;;;;;;48.42;32.25;;;;;;;;;;5068379;28;20425;-80
2022/11/14 01:55:48;;;;;;;52.03;32.90;;;;;;;;;;5066522;28;20425;-80
2022/11/14 01:58:17;;;;;;;50.10;32.80;;;;;;;;;;5067694;28;20424;-80
2022/11/14 02:00:43;;;;;;;50.47;31.92;;;;;;;;;;5067276;28;20464;-81
2022/11/14 02:03:11;;;;;;;52.92;31.75;;;;;;;;;;5066008;28;20433;-80
2022/11/14 02:05:38;;;;;;;48.65;31.30;;;;;;;;;;5063513;28;20938;-80
2022/11/14 02:08:05;;;;;;;45.80;30.50;;;;;;;;;;5070050;28;20414;-80
2022/11/14 02:10:33;;;;;;;47.00;30.30;;;;;;;;;;5068176;28;20916;-81
2022/11/14 02:12:59;;;;;;;50.70;32.42;;;;;;;;;;5067243;28;20416;-80
2022/11/14 02:15:29;;;;;;;49.78;32.85;;;;;;;;;;5066684;28;20923;-80
2022/11/14 02:17:56;;;;;;;51.92;32.47;;;;;;;;;;5069940;28;20415;-80
2022/11/14 02:20:27;;;;;;;47.25;31.02;;;;;;;;;;5068739;28;20423;-82
2022/11/14 02:22:53;;;;;;;48.50;32.28;;;;;;;;;;5072087;28;20436;-80
2022/11/14 02:25:20;;;;;;;48.70;31.25;;;;;;;;;;5069090;28;20414;-80
2022/11/14 02:27:47;;;;;;;52.00;33.13;;;;;;;;;;5070425;28;20431;-81
2022/11/14 02:30:16;;;;;;;47.13;31.13;;;;;;;;;;5067846;28;20428;-80
2022/11/14 02:32:42;;;;;;;50.90;32.38;;;;;;;;;;5065375;28;21638;-80
2022/11/14 02:35:10;;;;;;;48.95;32.28;;;;;;;;;;5068409;28;20437;-80
2022/11/14 02:37:38;;;;;;;49.37;32.47;;;;;;;;;;5068830;28;20424;-80
2022/11/14 02:40:06;;;;;;;48.88;32.25;;;;;;;;;;5066933;28;20455;-80
2022/11/14 02:42:33;;;;;;;49.00;32.58;;;;;;;;;;5068025;28;20430;-80
2022/11/14 02:45:00;;;;;;;50.22;31.13;;;;;;;;;;5066330;28;20450;-80
2022/11/14 02:47:26;;;;;;;47.40;31.52;;;;;;;;;;5064984;28;20518;-80
2022/11/14 02:49:53;;;;;;;50.80;32.63;;;;;;;;;;5063489;28;20438;-80
2022/11/14 02:52:19;;;;;;;49.70;30.98;;;;;;;;;;5065483;28;20417;-80
2022/11/14 02:54:47;;;;;;;47.63;32.42;;;;;;;;;;5068742;28;20428;-80
2022/11/14 02:57:13;;;;;;;48.53;31.90;;;;;;;;;;5066925;28;20421;-80
2022/11/14 02:59:40;;;;;;;48.65;32.83;;;;;;;;;;5065347;28;20430;-80
2022/11/14 03:02:07;;;;;;;47.78;32.50;;;;;;;;;;5066064;28;20430;-80
2022/11/14 03:04:33;;;;;;;48.75;31.42;;;;;;;;;;5063909;28;20425;-80
2022/11/14 03:07:01;;;;;;;51.40;32.28;;;;;;;;;;5072562;28;20429;-80
2022/11/14 03:09:27;;;;;;;49.40;31.40;;;;;;;;;;5068499;28;20486;-80
2022/11/14 03:11:56;;;;;;;44.67;31.50;;;;;;;;;;5070459;28;20418;-80
2022/11/14 03:14:24;;;;;;;48.03;32.00;;;;;;;;;;5068686;28;20435;-80
2022/11/14 03:16:50;;;;;;;47.95;30.48;;;;;;;;;;5067471;28;20417;-80
2022/11/14 03:19:17;;;;;;;50.07;32.53;;;;;;;;;;5065208;28;20422;-83
2022/11/14 03:21:43;;;;;;;47.72;31.17;;;;;;;;;;5062724;28;20427;-80
2022/11/14 03:24:09;;;;;;;48.25;31.20;;;;;;;;;;5070331;28;20798;-80
2022/11/14 03:26:35;;;;;;;46.95;31.08;;;;;;;;;;5063162;28;20423;-80
2022/11/14 03:29:03;;;;;;;48.63;30.77;;;;;;;;;;5066255;28;20419;-80
2022/11/14 03:31:31;;;;;;;48.30;31.90;;;;;;;;;;5066438;28;20412;-82
2022/11/14 03:33:58;;;;;;;49.25;31.10;;;;;;;;;;5067513;28;20436;-80
2022/11/14 03:36:26;;;;;;;46.58;30.67;;;;;;;;;;5064950;28;20440;-81
2022/11/14 03:38:53;;;;;;;47.60;30.92;;;;;;;;;;5065491;28;20505;-81
2022/11/14 03:41:19;;;;;;;48.83;31.98;;;;;;;;;;5062150;28;20428;-81
2022/11/14 03:43:47;;;;;;;48.90;30.48;;;;;;;;;;5064141;28;20917;-81
2022/11/14 03:46:15;;;;;;;47.58;30.50;;;;;;;;;;5083937;28;20431;-81
2022/11/14 03:48:41;;;;;;;51.75;32.05;;;;;;;;;;5063596;28;20424;-82
2022/11/14 03:51:08;;;;;;;50.63;32.30;;;;;;;;;;5064958;28;20425;-82
2022/11/14 03:53:34;;;;;;;51.45;32.17;;;;;;;;;;5067712;28;20430;-79
2022/11/14 03:56:00;;;;;;;48.00;30.05;;;;;;;;;;5067966;27;20404;-82
2022/11/14 03:58:27;;;;;;;51.17;32.30;;;;;;;;;;5080645;28;20422;-82
2022/11/14 04:00:54;;;;;;;49.97;32.10;;;;;;;;;;5081194;28;20458;-82
2022/11/14 04:03:22;;;;;;;48.72;31.65;;;;;;;;;;5063485;28;20441;-82
2022/11/14 04:05:49;;;;;;;50.17;32.13;;;;;;;;;;5064723;28;20434;-82
2022/11/14 04:08:17;;;;;;;49.38;31.13;;;;;;;;;;5066218;28;21134;-82
2022/11/14 04:10:46;;;;;;;51.85;32.40;;;;;;;;;;5065691;28;20427;-82
2022/11/14 04:13:13;;;;;;;51.63;31.70;;;;;;;;;;5064114;28;20491;-79
2022/11/14 04:15:40;;;;;;;50.58;31.50;;;;;;;;;;5066880;28;20931;-82
2022/11/14 04:18:06;;;;;;;47.53;30.73;;;;;;;;;;5072483;28;20415;-81
2022/11/14 04:20:34;;;;;;;50.28;31.45;;;;;;;;;;5067162;28;20431;-82
2022/11/14 04:23:01;;;;;;;53.75;32.55;;;;;;;;;;5063078;28;20411;-81
2022/11/14 04:25:28;;;;;;;55.42;33.00;;;;;;;;;;5066119;28;20879;-81
2022/11/14 04:27:55;;;;;;;53.22;32.90;;;;;;;;;;5068070;28;20425;-80
2022/11/14 04:30:21;;;;;;;47.45;31.98;;;;;;;;;;5065219;28;20415;-82
2022/11/14 04:32:48;;;;;;;48.15;31.10;;;;;;;;;;5064687;28;20425;-81
2022/11/14 04:35:14;;;;;;;47.40;31.23;;;;;;;;;;5064237;28;20783;-82
2022/11/14 04:37:42;;;;;;;50.38;31.63;;;;;;;;;;5070677;28;20531;-82
2022/11/14 04:40:09;;;;;;;56.55;33.55;;;;;;;;;;5067337;28;20417;-80
2022/11/14 04:42:35;;;;;;;56.42;31.00;;;;;;;;;;5066436;28;20427;-80
2022/11/14 04:45:02;;;;;;;48.10;31.83;;;;;;;;;;5067469;28;20413;-80
2022/11/14 04:47:35;;;;;;;54.47;32.10;;;;;;;;;;5066979;28;20420;-80
2022/11/14 04:50:02;;;;;;;51.28;30.60;;;;;;;;;;5067591;28;20426;-80
2022/11/14 04:52:29;;;;;;;48.88;30.15;;;;;;;;;;5063279;28;20432;-80
2022/11/14 04:54:57;;;;;;;51.45;31.65;;;;;;;;;;5068243;28;20444;-80
2022/11/14 04:57:24;;;;;;;50.25;30.05;;;;;;;;;;5062513;28;20427;-80
2022/11/14 04:59:51;;;;;;;50.90;31.00;;;;;;;;;;5065961;28;20436;-79
2022/11/14 05:02:18;;;;;;;49.97;30.90;;;;;;;;;;5067411;28;20423;-82
2022/11/14 05:04:46;;;;;;;51.05;30.20;;;;;;;;;;5067279;28;20428;-82
2022/11/14 05:07:13;;;;;;;50.65;30.60;;;;;;;;;;5060351;28;20947;-80
2022/11/14 05:09:39;;;;;;;50.50;32.30;;;;;;;;;;5068885;28;20435;-82
2022/11/14 05:12:08;;;;;;;54.80;31.30;;;;;;;;;;5063102;28;21003;-82
2022/11/14 05:14:34;;;;;;;52.47;33.30;;;;;;;;;;5066583;28;20429;-79
2022/11/14 05:17:01;;;;;;;55.17;34.22;;;;;;;;;;5065026;28;20418;-82
2022/11/14 05:19:27;;;;;;;56.20;34.17;;;;;;;;;;5067187;28;20426;-82
2022/11/14 05:21:53;;;;;;;51.80;33.03;;;;;;;;;;5064109;28;20454;-82
2022/11/14 05:24:20;;;;;;;55.58;34.15;;;;;;;;;;5063528;28;20432;-81
2022/11/14 05:26:48;;;;;;;50.93;32.07;;;;;;;;;;5064894;28;20421;-81
2022/11/14 05:29:16;;;;;;;48.85;31.80;;;;;;;;;;5067427;28;20438;-81
2022/11/14 05:31:42;;;;;;;52.15;32.95;;;;;;;;;;5071301;28;20427;-81
2022/11/14 05:34:09;;;;;;;55.10;33.55;;;;;;;;;;5067778;28;20461;-81
2022/11/14 05:36:35;;;;;;;53.75;32.97;;;;;;;;;;5071046;28;20425;-81
2022/11/14 05:39:02;;;;;;;55.47;32.67;;;;;;;;;;5064950;28;20428;-81
2022/11/14 05:41:29;;;;;;;52.53;32.55;;;;;;;;;;5065938;28;20432;-81
2022/11/14 05:43:57;;;;;;;50.83;33.08;;;;;;;;;;5068978;28;20553;-82
2022/11/14 05:46:25;;;;;;;53.67;32.20;;;;;;;;;;5070947;28;20439;-81
2022/11/14 05:48:52;;;;;;;51.28;32.70;;;;;;;;;;5067746;28;20432;-81
2022/11/14 05:51:18;;;;;;;53.57;33.17;;;;;;;;;;5062950;28;20416;-80
2022/11/14 05:53:44;;;;;;;58.25;33.65;;;;;;;;;;5062914;28;20425;-78
2022/11/14 05:56:13;;;;;;;55.75;33.53;;;;;;;;;;5060001;28;20404;-78
2022/11/14 05:58:39;;;;;;;51.13;33.15;;;;;;;;;;5060284;28;20425;-80
2022/11/14 06:01:07;;;;;;;57.78;33.08;;;;;;;;;;5058319;28;20413;-80
2022/11/14 06:03:36;;;;;;;53.17;32.20;;;;;;;;;;5058155;28;20434;-78
2022/11/14 06:06:03;;;;;;;55.28;33.83;;;;;;;;;;5061446;28;20408;-81
2022/11/14 06:08:29;;;;;;;51.95;33.95;;;;;;;;;;5060258;28;20423;-81
2022/11/14 06:10:55;;;;;;;56.25;33.22;;;;;;;;;;5060573;28;20432;-80
2022/11/14 06:13:23;;;;;;;54.88;33.72;;;;;;;;;;5063928;28;20425;-80
2022/11/14 06:15:49;;;;;;;57.17;33.22;;;;;;;;;;5068322;28;21016;-78
2022/11/14 06:18:15;;;;;;;57.53;33.45;;;;;;;;;;5067462;28;20441;-80
2022/11/14 06:20:47;;;;;;;56.87;35.23;;;;;;;;;;5061885;28;20469;-78
2022/11/14 06:23:14;;;;;;;58.30;33.90;;;;;;;;;;5057475;28;20438;-78
2022/11/14 06:25:41;;;;;;;63.13;36.13;;;;;;;;;;5062658;28;20926;-78
2022/11/14 06:28:08;;;;;;;56.20;34.70;;;;;;;;;;5062391;28;20435;-80
2022/11/14 06:30:34;;;;;;;56.00;34.50;;;;;;;;;;5061348;28;20431;-78
2022/11/14 06:33:03;;;;;;;59.50;35.42;;;;;;;;;;5067554;28;20427;-80
2022/11/14 06:35:31;;;;;;;54.63;32.80;;;;;;;;;;5065319;28;20431;-79
2022/11/14 06:38:00;;;;;;;56.72;36.13;;;;;;;;;;5064318;28;20950;-81
2022/11/14 06:40:28;;;;;;;60.37;34.37;;;;;;;;;;5066006;28;20428;-80
2022/11/14 06:42:55;;;;;;;60.78;36.38;;;;;;;;;;5070608;28;20431;-79
2022/11/14 06:45:21;;;;;;;57.90;34.63;;;;;;;;;;5066112;28;20429;-79
2022/11/14 06:47:48;;;;;;;62.65;37.70;;;;;;;;;;5068957;28;20415;-79
2022/11/14 06:50:15;;;;;;;61.58;35.03;;;;;;;;;;5068998;28;20431;-80
2022/11/14 06:52:41;;;;;;;62.55;36.92;;;;;;;;;;5067778;28;20426;-80
2022/11/14 06:55:10;;;;;;;56.90;34.47;;;;;;;;;;5071973;28;20420;-79
2022/11/14 06:57:37;;;;;;;59.22;37.00;;;;;;;;;;5065576;28;20423;-79
2022/11/14 07:00:03;;;;;;;60.30;35.72;;;;;;;;;;5065700;28;20410;-80
2022/11/14 07:02:30;;;;;;;60.25;36.70;;;;;;;;;;5063779;28;21057;-79
2022/11/14 07:04:57;;;;;;;59.87;36.50;;;;;;;;;;5068172;28;20967;-80
2022/11/14 07:07:27;;;;;;;63.13;37.15;;;;;;;;;;5064215;28;20417;-79
2022/11/14 07:09:55;;;;;;;61.97;36.07;;;;;;;;;;5065016;28;20514;-79
2022/11/14 07:12:23;;;;;;;60.90;37.22;;;;;;;;;;5073233;28;20412;-80
2022/11/14 07:14:49;;;;;;;60.35;34.97;;;;;;;;;;5075053;28;20425;-80
2022/11/14 07:17:15;;;;;;;64.78;37.60;;;;;;;;;;5069396;28;20420;-80
2022/11/14 07:19:42;;;;;;;62.58;37.85;;;;;;;;;;5067566;28;20412;-80
2022/11/14 07:22:08;;;;;;;64.43;37.80;;;;;;;;;;5069375;28;20783;-80
2022/11/14 07:24:35;;;;;;;63.08;37.45;;;;;;;;;;5065664;28;20425;-80
2022/11/14 07:27:07;;;;;;;63.35;36.88;;;;;;;;;;5069877;28;20915;-79
2022/11/14 07:29:35;;;;;;;58.67;35.42;;;;;;;;;;5067833;28;20449;-80
2022/11/14 07:32:01;;;;;;;65.55;36.95;;;;;;;;;;5070624;28;20473;-80
2022/11/14 07:34:29;;;;;;;65.55;37.60;;;;;;;;;;5064750;28;20429;-80
2022/11/14 07:36:56;;;;;;;57.22;34.20;;;;;;;;;;5065941;28;20416;-80
2022/11/14 07:39:22;;;;;;;59.50;34.92;;;;;;;;;;5066284;28;20742;-80
2022/11/14 07:41:50;;;;;;;62.03;37.07;;;;;;;;;;5070148;28;20410;-80
2022/11/14 07:44:16;;;;;;;58.67;36.33;;;;;;;;;;5062040;28;20905;-80
2022/11/14 07:46:44;;;;;;;62.75;36.13;;;;;;;;;;5066036;28;20410;-80
2022/11/14 07:49:11;;;;;;;59.00;35.40;;;;;;;;;;5062694;28;20425;-80
2022/11/14 07:51:38;;;;;;;64.25;37.42;;;;;;;;;;5067099;28;20469;-80
2022/11/14 07:54:06;;;;;;;64.50;37.75;;;;;;;;;;5068531;28;20421;-80
2022/11/14 07:56:33;;;;;;;61.53;36.33;;;;;;;;;;5065249;28;20764;-80
2022/11/14 07:59:00;;;;;;;66.68;38.25;;;;;;;;;;5068492;28;20417;-80
2022/11/14 08:01:27;;;;;;;62.47;37.27;;;;;;;;;;5064551;28;20412;-80
2022/11/14 08:03:55;;;;;;;66.85;37.90;;;;;;;;;;5068702;28;20522;-80
2022/11/14 08:06:21;;;;;;;60.67;35.63;;;;;;;;;;5066394;28;20477;-80
2022/11/14 08:08:47;;;;;;;60.17;36.90;;;;;;;;;;5067315;28;20429;-80
2022/11/14 08:11:14;;;;;;;62.93;38.00;;;;;;;;;;5063576;28;20421;-80
2022/11/14 08:13:41;;;;;;;61.42;37.45;;;;;;;;;;5067372;28;20427;-80
2022/11/14 08:16:08;;;;;;;64.45;37.10;;;;;;;;;;5063579;28;20448;-80
2022/11/14 08:18:35;;;;;;;68.07;38.97;;;;;;;;;;5062933;28;20431;-80
2022/11/14 08:21:05;;;;;;;64.03;38.47;;;;;;;;;;5067440;28;20397;-80
2022/11/14 08:23:31;;;;;;;60.53;36.63;;;;;;;;;;5066926;28;20435;-80
2022/11/14 08:25:58;;;;;;;68.90;39.00;;;;;;;;;;5071998;28;20411;-80
2022/11/14 08:28:25;;;;;;;65.05;37.72;;;;;;;;;;5067635;28;20412;-80
2022/11/14 08:30:53;;;;;;;67.50;40.20;;;;;;;;;;5063280;28;20458;-80
2022/11/14 08:33:20;;;;;;;72.30;39.60;;;;;;;;;;5066124;28;20433;-80
2022/11/14 08:35:46;;;;;;;62.35;36.95;;;;;;;;;;5067884;28;20425;-80
2022/11/14 08:38:15;;;;;;;64.90;38.87;;;;;;;;;;5064045;28;20507;-80
2022/11/14 08:40:41;;;;;;;65.88;38.63;;;;;;;;;;5062872;28;20978;-80
2022/11/14 08:43:10;;;;;;;66.65;39.78;;;;;;;;;;5065607;28;20789;-80
2022/11/14 08:45:36;;;;;;;70.47;40.15;;;;;;;;;;5062866;28;20456;-80
2022/11/14 08:48:04;;;;;;;62.58;37.15;;;;;;;;;;5062034;28;20423;-80
2022/11/14 08:50:31;;;;;;;59.67;35.75;;;;;;;;;;5061803;28;20837;-80
2022/11/14 08:52:57;;;;;;;66.10;38.17;;;;;;;;;;5064777;28;20440;-80
2022/11/14 08:55:25;;;;;;;62.57;36.23;;;;;;;;;;5064208;28;20503;-81
2022/11/14 08:57:53;;;;;;;64.63;36.60;;;;;;;;;;5062509;28;20933;-80
2022/11/14 09:00:20;;;;;;;63.80;36.20;;;;;;;;;;5064507;28;20441;-80
2022/11/14 09:02:46;;;;;;;66.40;38.00;;;;;;;;;;5063446;28;20421;-80
2022/11/14 09:05:12;;;;;;;62.05;35.15;;;;;;;;;;5064068;28;20926;-80
2022/11/14 09:07:39;;;;;;;64.90;38.22;;;;;;;;;;5060356;28;20820;-80
2022/11/14 09:10:11;;;;;;;65.47;36.87;;;;;;;;;;5073662;28;20496;-80
2022/11/14 09:12:39;;;;;;;62.05;36.28;;;;;;;;;;5065074;28;20420;-80
2022/11/14 09:15:07;;;;;;;63.17;37.40;;;;;;;;;;5071285;28;20415;-80
2022/11/14 09:17:34;;;;;;;61.67;36.63;;;;;;;;;;5062184;28;20417;-80
2022/11/14 09:20:01;;;;;;;65.45;37.03;;;;;;;;;;5066881;28;20910;-80
2022/11/14 09:22:27;;;;;;;63.53;36.45;;;;;;;;;;5068689;28;20414;-80
2022/11/14 09:24:54;;;;;;;60.58;36.58;;;;;;;;;;5067629;28;20443;-79
2022/11/14 09:27:21;;;;;;;58.38;35.92;;;;;;;;;;5062090;28;20417;-80
2022/11/14 09:29:54;;;;;;;60.15;35.70;;;;;;;;;;5065601;28;20423;-80
2022/11/14 09:32:20;;;;;;;69.07;38.58;;;;;;;;;;5063206;28;20486;-80
2022/11/14 09:34:47;;;;;;;62.60;34.83;;;;;;;;;;5063837;28;20433;-80
2022/11/14 09:37:14;;;;;;;61.20;37.20;;;;;;;;;;5064510;28;20410;-80
2022/11/14 09:39:41;;;;;;;60.35;36.47;;;;;;;;;;5065858;28;20433;-80
2022/11/14 09:42:15;;;;;;;63.08;36.13;;;;;;;;;;5065492;28;20417;-80
2022/11/14 09:44:49;;;;;;;65.80;36.73;;;;;;;;;;5061382;28;20867;-80
2022/11/14 09:47:20;;;;;;;62.22;35.33;;;;;;;;;;5065110;28;20426;-80
2022/11/14 09:49:47;;;;;;;57.63;35.53;;;;;;;;;;5066862;28;20803;-80
2022/11/14 09:52:20;;;;;;;64.83;36.30;;;;;;;;;;5065569;28;20419;-80
2022/11/14 09:54:50;;;;;;;63.50;37.33;;;;;;;;;;5061177;28;20435;-80
2022/11/14 09:57:17;;;;;;;58.25;36.25;;;;;;;;;;5065580;28;20404;-80
2022/11/14 09:59:44;;;;;;;62.92;35.15;;;;;;;;;;5064927;28;20455;-80
2022/11/14 10:02:30;;;;;;;60.50;36.13;;;;;;;;;;5068069;28;20441;-80
2022/11/14 10:05:03;;;;;;;60.28;36.58;;;;;;;;;;5064599;28;20413;-80
2022/11/14 10:07:37;;;;;;;66.35;37.53;;;;;;;;;;5062067;28;20428;-80
2022/11/14 10:10:09;;;;;;;62.08;36.20;;;;;;;;;;5064195;28;20422;-80
2022/11/14 10:12:40;;;;;;;61.08;36.90;;;;;;;;;;5064755;28;20423;-80
2022/11/14 10:15:12;;;;;;;56.60;35.13;;;;;;;;;;5068816;28;20424;-80
2022/11/14 10:17:45;;;;;;;59.25;34.40;;;;;;;;;;5061540;28;20425;-80
2022/11/14 10:20:19;;;;;;;62.75;36.17;;;;;;;;;;5066870;28;20431;-80
2022/11/14 10:22:59;;;;;;;57.97;36.47;;;;;;;;;;5067642;28;20420;-80
2022/11/14 10:25:28;;;;;;;61.25;36.35;;;;;;;;;;5067921;28;20438;-80
2022/11/14 10:28:03;;;;;;;58.80;36.22;;;;;;;;;;5066178;28;20415;-80
2022/11/14 10:30:34;;;;;;;59.30;36.38;;;;;;;;;;5069434;28;20438;-80
2022/11/14 10:33:08;;;;;;;55.97;35.67;;;;;;;;;;5067659;28;20450;-80
2022/11/14 10:35:37;;;;;;;58.85;35.72;;;;;;;;;;5069075;28;20433;-80
2022/11/14 10:38:07;;;;;;;57.25;35.08;;;;;;;;;;5069775;28;20419;-80
2022/11/14 10:40:38;;;;;;;57.80;35.22;;;;;;;;;;5067485;28;20423;-80
2022/11/14 10:43:07;;;;;;;55.10;35.00;;;;;;;;;;5067797;28;20422;-80
2022/11/14 10:45:35;;;;;;;59.17;35.47;;;;;;;;;;5069294;28;20411;-79
2022/11/14 10:48:03;;;;;;;56.80;35.38;;;;;;;;;;5063141;28;20417;-80
2022/11/14 10:50:41;;;;;;;60.63;35.75;;;;;;;;;;5066624;28;20433;-80
2022/11/14 10:53:14;;;;;;;55.63;35.73;;;;;;;;;;5067563;28;20507;-80
2022/11/14 10:55:42;;;;;;;58.25;35.45;;;;;;;;;;5067645;28;20961;-80
2022/11/14 10:58:09;;;;;;;56.60;34.13;;;;;;;;;;5071584;28;20418;-80
2022/11/14 11:00:35;;;;;;;74.80;34.05;;;;;;;;;;5071269;28;20415;-79
2022/11/14 11:03:02;;;;;;;61.03;35.05;;;;;;;;;;5067686;28;20416;-80
2022/11/14 11:05:29;;;;;;;59.05;35.58;;;;;;;;;;5067513;28;20457;-80
2022/11/14 11:13:33;;;;;;;57.30;34.10;;;;;;;;;;5067211;28;20764;-80
2022/11/14 11:16:01;;;;;;;54.35;34.55;;;;;;;;;;5068796;28;20408;-80
2022/11/14 11:18:28;;;;;;;57.73;35.47;;;;;;;;;;5072344;28;20413;-80
2022/11/14 11:21:02;;;;;;;54.72;35.03;;;;;;;;;;5065916;28;20423;-79
2022/11/14 11:23:30;;;;;;;56.00;34.77;;;;;;;;;;5067172;28;20456;-80
2022/11/14 11:25:59;;;;;;;54.10;33.63;;;;;;;;;;5068735;28;20435;-80
2022/11/14 11:28:29;;;;;;;54.42;32.88;;;;;;;;;;5066793;28;20413;-80
2022/11/14 11:30:56;;;;;;;51.22;33.67;;;;;;;;;;5066862;28;20935;-80
2022/11/14 11:33:24;;;;;;;55.83;33.67;;;;;;;;;;5069757;28;20423;-79
2022/11/14 11:35:51;;;;;;;55.63;34.10;;;;;;;;;;5066140;28;20407;-79
2022/11/14 11:38:18;;;;;;;56.50;34.83;;;;;;;;;;5066622;28;20787;-80
2022/11/14 11:40:48;;;;;;;52.03;31.92;;;;;;;;;;5066722;28;20912;-81
2022/11/14 11:43:16;;;;;;;58.07;33.93;;;;;;;;;;5065039;28;20537;-81
2022/11/14 11:45:45;;;;;;;55.05;33.97;;;;;;;;;;5064947;28;20417;-81
2022/11/14 11:48:15;;;;;;;53.90;33.88;;;;;;;;;;5065929;28;20432;-81
2022/11/14 11:50:42;;;;;;;57.20;33.80;;;;;;;;;;5065941;28;20419;-81
2022/11/14 11:53:15;;;;;;;53.65;33.38;;;;;;;;;;5065392;28;20421;-82
2022/11/14 11:55:43;;;;;;;52.58;32.53;;;;;;;;;;5067084;28;20431;-80
2022/11/14 11:58:16;;;;;;;58.10;33.25;;;;;;;;;;5066063;28;20418;-80
2022/11/14 12:00:43;;;;;;;58.78;35.17;;;;;;;;;;5065854;28;20457;-79
2022/11/14 12:03:12;;;;;;;54.83;33.95;;;;;;;;;;5067138;28;20420;-80
2022/11/14 12:05:42;;;;;;;53.20;34.47;;;;;;;;;;5064746;28;20427;-79
2022/11/14 12:08:13;;;;;;;53.13;32.67;;;;;;;;;;5061125;28;20434;-81
2022/11/14 12:10:41;;;;;;;56.03;34.50;;;;;;;;;;5064756;28;20425;-78
2022/11/14 12:13:26;;;;;;;54.65;34.28;;;;;;;;;;5065808;28;20449;-80
2022/11/14 12:16:00;;;;;;;52.42;32.90;;;;;;;;;;5064328;28;20420;-79
2022/11/14 12:18:37;;;;;;;52.23;33.60;;;;;;;;;;5066506;28;20501;-79
2022/11/14 12:21:09;;;;;;;53.67;33.27;;;;;;;;;;5064756;28;20411;-80
2022/11/14 12:23:55;;;;;;;54.38;33.35;;;;;;;;;;5062957;28;20441;-79
2022/11/14 12:26:29;;;;;;;51.80;33.58;;;;;;;;;;5055760;28;20417;-78
2022/11/14 12:29:04;;;;;;;52.10;32.92;;;;;;;;;;5063670;28;20414;-80
2022/11/14 12:31:33;;;;;;;54.47;34.28;;;;;;;;;;5058162;28;20412;-80
2022/11/14 12:34:03;;;;;;;54.80;33.37;;;;;;;;;;5060273;28;20883;-80
2022/11/14 12:36:30;;;;;;;55.25;34.33;;;;;;;;;;5059483;28;20445;-80
2022/11/14 12:38:57;;;;;;;54.90;35.05;;;;;;;;;;5061420;28;20429;-79
2022/11/14 12:41:25;;;;;;;58.00;34.00;;;;;;;;;;5059455;28;20442;-78
2022/11/14 12:43:51;;;;;;;50.00;31.88;;;;;;;;;;5054427;28;20418;-78
2022/11/14 12:46:18;;;;;;;54.70;33.90;;;;;;;;;;5057345;28;20946;-78
2022/11/14 12:48:47;;;;;;;54.85;33.80;;;;;;;;;;5060971;28;20436;-79
2022/11/14 12:51:32;;;;;;;50.20;31.73;;;;;;;;;;5061542;28;20492;-79
2022/11/14 12:53:58;;;;;;;52.20;33.20;;;;;;;;;;5059850;28;20796;-78
2022/11/14 12:56:45;;;;;;;50.75;31.83;;;;;;;;;;5063785;28;20407;-79
2022/11/14 12:59:36;;;;;;;52.87;33.20;;;;;;;;;;5057420;28;20897;-78
2022/11/14 13:02:13;;;;;;;50.55;33.22;;;;;;;;;;5059528;28;20431;-78
2022/11/14 13:04:46;;;;;;;52.33;32.27;;;;;;;;;;5057798;28;20428;-79
2022/11/14 13:07:20;;;;;;;55.03;34.35;;;;;;;;;;5060219;28;20416;-80
2022/11/14 13:10:01;;;;;;;52.45;33.20;;;;;;;;;;5062058;28;20450;-79
2022/11/14 13:23:59;;;;;;;49.55;32.78;;;;;;;;;;5060113;28;20396;-78
2022/11/14 13:26:35;;;;;;;53.83;34.50;;;;;;;;;;5059409;28;20408;-78
2022/11/14 13:29:02;;;;;;;54.40;34.78;;;;;;;;;;5057588;28;20810;-79
2022/11/14 13:31:43;;;;;;;53.35;33.78;;;;;;;;;;5059950;28;20421;-80
2022/11/14 13:34:29;;;;;;;53.65;33.15;;;;;;;;;;5058498;28;20423;-78
2022/11/14 13:36:59;;;;;;;54.38;32.53;;;;;;;;;;5057905;28;20417;-78
2022/11/14 13:39:31;;;;;;;56.22;33.72;;;;;;;;;;5053926;28;20424;-79
2022/11/14 13:42:16;;;;;;;50.50;32.90;;;;;;;;;;5059099;28;20422;-80
2022/11/14 13:45:04;;;;;;;53.13;34.22;;;;;;;;;;5045156;28;20433;-78
2022/11/14 13:47:38;;;;;;;53.33;34.10;;;;;;;;;;5057564;28;20415;-80
2022/11/14 13:50:06;;;;;;;52.95;32.25;;;;;;;;;;5060543;28;20427;-79
2022/11/14 13:52:34;;;;;;;52.70;31.98;;;;;;;;;;5057978;28;20422;-79
2022/11/14 13:55:03;;;;;;;52.42;32.72;;;;;;;;;;5058363;28;20429;-80
2022/11/14 13:57:36;;;;;;;50.90;32.83;;;;;;;;;;5065726;28;20496;-79
2022/11/14 14:00:10;;;;;;;56.05;34.75;;;;;;;;;;5064367;28;20415;-79
2022/11/14 14:02:51;;;;;;;54.28;32.63;;;;;;;;;;5062841;28;20421;-79
2022/11/14 14:05:25;;;;;;;54.63;33.77;;;;;;;;;;5056074;28;20493;-79
2022/11/14 14:08:06;;;;;;;52.10;32.85;;;;;;;;;;5060688;28;20790;-79
2022/11/14 14:10:38;;;;;;;55.60;33.90;;;;;;;;;;5059403;28;20436;-80
2022/11/14 14:13:10;;;;;;;54.92;32.67;;;;;;;;;;5067057;28;20400;-80
2022/11/14 14:15:41;;;;;;;52.30;32.58;;;;;;;;;;5062063;28;20414;-80
2022/11/14 14:18:12;;;;;;;56.80;33.95;;;;;;;;;;5066540;28;20412;-80
2022/11/14 14:20:42;;;;;;;53.85;33.08;;;;;;;;;;5062007;28;20428;-80
2022/11/14 14:23:15;;;;;;;58.67;35.13;;;;;;;;;;5060215;28;20432;-79
2022/11/14 14:25:48;;;;;;;51.45;32.53;;;;;;;;;;5062750;28;20455;-79
2022/11/14 14:28:19;;;;;;;49.83;32.67;;;;;;;;;;5062242;28;20411;-79
2022/11/14 14:31:01;;;;;;;49.58;32.63;;;;;;;;;;5057469;28;20429;-81
2022/11/14 14:33:29;;;;;;;53.13;33.03;;;;;;;;;;5054414;28;20417;-79
2022/11/14 14:35:55;;;;;;;56.67;33.55;;;;;;;;;;5058949;28;20430;-79
2022/11/14 14:38:23;;;;;;;52.28;33.28;;;;;;;;;;5061792;28;20433;-79
2022/11/14 14:40:50;;;;;;;56.10;33.03;;;;;;;;;;5063351;28;20428;-79
2022/11/14 14:43:23;;;;;;;53.75;34.15;;;;;;;;;;5062166;28;20885;-79